Time;durP1;ratioP1;P1;durP2;ratioP2;P2;SDS_P1;SDS_P2;PMS_P1;PMS_P2;Temp;Humidity;BMP_temperature;BMP_pressure;BME280_temperature;BME280_humidity;BME280_pressure;Samples;Min_cycle;Max_cycle;Signal;HPM_P1;HPM_P2
2021/12/03 00:08:17;;;;;;;0.20;0.10;;;7.70;99.90;;;;;;20801604;28;20218;-72
2021/12/03 00:18:21;;;;;;;0.20;0.10;;;8.10;99.90;;;;;;20817779;28;20202;-70
2021/12/03 00:28:28;;;;;;;0.20;0.10;;;8.10;99.90;;;;;;20799381;28;20583;-69
2021/12/03 00:38:36;;;;;;;0.20;0.10;;;7.80;99.90;;;;;;20814805;28;20237;-70
2021/12/03 00:48:40;;;;;;;0.20;0.10;;;7.70;99.90;;;;;;20799055;28;20237;-69
2021/12/03 00:58:45;;;;;;;0.20;0.10;;;7.70;99.90;;;;;;20816710;28;20229;-70
2021/12/03 01:08:50;;;;;;;0.20;0.10;;;7.50;99.90;;;;;;20815293;28;20325;-72
2021/12/03 01:18:53;;;;;;;0.20;0.10;;;7.40;99.90;;;;;;20814610;28;20240;-72
2021/12/03 01:28:58;;;;;;;0.20;0.10;;;7.30;99.90;;;;;;20814650;28;20244;-71
2021/12/03 01:39:06;;;;;;;0.20;0.10;;;7.20;99.90;;;;;;20795879;28;20221;-72
2021/12/03 01:49:14;;;;;;;0.20;0.10;;;7.10;99.90;;;;;;20798614;28;20264;-73
2021/12/03 01:59:17;;;;;;;0.20;0.10;;;6.70;99.90;;;;;;20826088;22;20200;-84
2021/12/03 02:09:22;;;;;;;0.20;0.10;;;6.50;99.90;;;;;;20833851;28;20321;-77
2021/12/03 02:19:28;;;;;;;0.20;0.10;;;6.50;99.90;;;;;;20832077;28;20707;-80
2021/12/03 02:29:33;;;;;;;0.20;0.10;;;6.40;99.90;;;;;;20831887;28;20229;-84
2021/12/03 02:39:37;;;;;;;0.20;0.10;;;6.30;99.90;;;;;;20827629;28;20202;-78
2021/12/03 02:49:42;;;;;;;0.20;0.10;;;6.20;99.90;;;;;;20830309;28;20670;-78
2021/12/03 02:59:46;;;;;;;0.20;0.10;;;6.50;99.90;;;;;;20829602;28;20285;-79
2021/12/03 03:09:52;;;;;;;0.20;0.10;;;6.40;99.90;;;;;;20828112;28;20568;-81
2021/12/03 03:19:57;;;;;;;0.20;0.20;;;6.50;99.90;;;;;;20827108;28;20611;-78
2021/12/03 03:30:02;;;;;;;0.20;0.10;;;6.40;99.90;;;;;;20826117;28;20222;-77
2021/12/03 03:40:08;;;;;;;0.20;0.10;;;6.30;99.90;;;;;;20825794;28;20226;-77
2021/12/03 03:50:15;;;;;;;0.20;0.10;;;6.30;99.90;;;;;;20808594;28;20657;-80
2021/12/03 04:00:21;;;;;;;0.20;0.10;;;6.50;99.90;;;;;;20824111;28;20249;-77
2021/12/03 04:10:27;;;;;;;0.20;0.10;;;6.80;99.90;;;;;;20821668;28;20542;-77
2021/12/03 04:20:30;;;;;;;0.20;0.10;;;6.60;99.90;;;;;;20821679;28;20281;-79
2021/12/03 04:30:35;;;;;;;0.20;0.10;;;6.80;99.90;;;;;;20821684;28;20690;-81
2021/12/03 04:40:41;;;;;;;0.20;0.10;;;6.70;99.90;;;;;;20819881;28;20232;-81
2021/12/03 04:50:47;;;;;;;0.20;0.10;;;6.60;99.90;;;;;;20801422;28;20588;-83
2021/12/03 05:00:59;;;;;;;0.20;0.10;;;6.40;99.90;;;;;;20808690;22;20229;-76
2021/12/03 05:11:04;;;;;;;0.20;0.10;;;6.30;99.90;;;;;;20818420;28;20597;-76
2021/12/03 05:21:08;;;;;;;0.20;0.10;;;6.70;99.90;;;;;;20799893;28;20314;-77
2021/12/03 05:31:13;;;;;;;0.20;0.10;;;6.50;99.90;;;;;;20810778;28;20233;-76
2021/12/03 05:41:18;;;;;;;0.20;0.10;;;6.50;99.90;;;;;;20752861;28;20199;-76
2021/12/03 05:51:25;;;;;;;0.20;0.10;;;6.40;99.90;;;;;;20734267;28;20245;-77
2021/12/03 06:01:28;;;;;;;0.20;0.10;;;6.30;99.90;;;;;;20783669;28;20226;-75
2021/12/03 06:11:33;;;;;;;0.20;0.10;;;6.10;99.90;;;;;;20831730;28;20218;-76
2021/12/03 06:21:37;;;;;;;0.53;0.53;;;6.10;99.90;;;;;;20813722;28;20194;-77
2021/12/03 06:31:42;;;;;;;0.20;0.10;;;5.90;99.90;;;;;;20829345;28;20565;-76
2021/12/03 06:41:46;;;;;;;0.20;0.10;;;5.80;99.90;;;;;;20829340;28;20697;-76
2021/12/03 06:51:52;;;;;;;0.20;0.20;;;6.00;99.90;;;;;;20826065;28;20260;-76
2021/12/03 07:01:56;;;;;;;0.20;0.10;;;5.70;99.90;;;;;;20825002;28;20696;-75
2021/12/03 07:12:01;;;;;;;0.20;0.10;;;5.60;99.90;;;;;;20823401;28;20269;-76
2021/12/03 07:22:05;;;;;;;0.20;0.10;;;5.60;99.90;;;;;;20823921;28;20225;-75
2021/12/03 07:32:11;;;;;;;0.20;0.10;;;6.20;99.90;;;;;;20822541;28;20321;-77
2021/12/03 07:42:14;;;;;;;0.20;0.10;;;6.30;99.90;;;;;;20825391;28;20201;-78
2021/12/03 07:52:21;;;;;;;0.20;0.10;;;6.60;99.90;;;;;;20822150;28;20618;-77
2021/12/03 08:02:26;;;;;;;0.20;0.10;;;6.70;99.90;;;;;;20803272;28;20226;-79
2021/12/03 08:12:32;;;;;;;0.20;0.10;;;7.00;99.90;;;;;;20820104;28;20662;-72
2021/12/03 08:22:36;;;;;;;0.20;0.10;;;7.30;99.90;;;;;;20814205;28;20202;-73
2021/12/03 08:32:42;;;;;;;0.20;0.10;;;7.60;99.90;;;;;;20816718;28;20644;-74
2021/12/03 08:42:46;;;;;;;0.20;0.10;;;7.90;99.90;;;;;;20823581;28;20229;-76
2021/12/03 08:53:15;;;;;;;0.20;0.10;;;8.30;99.90;;;;;;20837014;28;20734;-76
2021/12/03 09:03:19;;;;;;;0.20;0.10;;;8.40;99.90;;;;;;20826758;28;20249;-77
2021/12/03 09:13:26;;;;;;;0.20;0.10;;;8.70;99.90;;;;;;20818203;28;20230;-77
2021/12/03 09:23:36;;;;;;;0.20;0.10;;;9.00;99.90;;;;;;20814426;28;20281;-73
2021/12/03 09:33:43;;;;;;;0.20;0.10;;;9.30;99.90;;;;;;20816553;28;20730;-74
2021/12/03 09:43:50;;;;;;;0.20;0.10;;;9.70;99.90;;;;;;20813325;28;20205;-74
2021/12/03 09:54:19;;;;;;;0.20;0.10;;;10.00;99.90;;;;;;20791012;28;20228;-74
2021/12/03 10:04:43;;;;;;;0.20;0.10;;;10.40;99.90;;;;;;20805821;28;20232;-74
2021/12/03 10:14:58;;;;;;;0.20;0.10;;;10.90;99.90;;;;;;20838850;28;20260;-75
2021/12/03 10:25:18;;;;;;;0.20;0.10;;;11.70;99.90;;;;;;20813909;28;20236;-73
2021/12/03 10:46:20;;;;;;;0.20;0.10;;;13.00;99.90;;;;;;20792415;28;20218;-74
2021/12/03 10:56:54;;;;;;;0.20;0.10;;;13.50;99.90;;;;;;20812250;28;20213;-71
2021/12/03 11:28:40;;;;;;;0.20;0.10;;;15.10;99.90;;;;;;20808776;28;20229;-73
2021/12/03 11:39:14;;;;;;;0.20;0.10;;;16.20;99.90;;;;;;20791517;28;20208;-73
2021/12/03 14:57:33;;;;;;;0.20;0.10;;;15.80;99.90;;;;;;20811051;28;20567;-69
2021/12/03 15:07:43;;;;;;;0.20;0.00;;;16.10;99.90;;;;;;20792980;28;20296;-74
2021/12/03 15:28:43;;;;;;;0.20;0.10;;;15.00;99.90;;;;;;21654514;22;20218;-79
2021/12/03 15:39:19;;;;;;;0.20;0.10;;;14.20;99.90;;;;;;20807441;28;20644;-80
2021/12/03 16:10:20;;;;;;;0.20;0.10;;;12.90;99.90;;;;;;20743843;28;20279;-75
2021/12/03 16:51:45;;;;;;;0.20;0.10;;;10.60;99.90;;;;;;20851480;28;20221;-73
2021/12/03 17:01:53;;;;;;;0.20;0.10;;;10.50;99.90;;;;;;20805706;28;20561;-74
2021/12/03 17:12:12;;;;;;;0.20;0.10;;;10.10;99.90;;;;;;20805628;28;20257;-74
2021/12/03 17:53:47;;;;;;;0.20;0.10;;;9.50;99.90;;;;;;20787363;28;20355;-76
2021/12/03 18:03:58;;;;;;;0.20;0.00;;;9.30;99.90;;;;;;20832120;28;20209;-77
2021/12/03 18:55:34;;;;;;;0.20;0.10;;;9.20;99.90;;;;;;20831467;28;20218;-79
2021/12/03 19:05:51;;;;;;;0.20;0.00;;;8.70;99.90;;;;;;20826434;28;20244;-76
2021/12/03 19:15:56;;;;;;;0.20;0.10;;;8.70;99.90;;;;;;20827639;28;20233;-79
2021/12/03 19:26:00;;;;;;;0.20;0.10;;;8.90;99.90;;;;;;20822667;28;20233;-76
2021/12/03 19:36:06;;;;;;;4.03;1.20;;;8.70;99.90;;;;;;20824458;28;20332;-77
2021/12/03 19:46:13;;;;;;;0.20;0.10;;;8.50;99.90;;;;;;20822022;28;20675;-76
2021/12/03 19:56:18;;;;;;;0.20;0.10;;;8.50;99.90;;;;;;20823364;28;20568;-77
2021/12/03 20:06:23;;;;;;;0.20;0.10;;;8.50;99.90;;;;;;20824131;28;20218;-80
2021/12/03 20:16:36;;;;;;;0.20;0.10;;;8.50;99.90;;;;;;20805822;28;20760;-78
2021/12/03 20:26:50;;;;;;;0.20;0.10;;;8.60;99.90;;;;;;20821707;28;20305;-79
2021/12/03 20:36:58;;;;;;;0.20;0.10;;;8.60;99.90;;;;;;20818466;28;20260;-78
2021/12/03 20:47:17;;;;;;;0.20;0.00;;;8.60;99.90;;;;;;20818894;28;20205;-76
2021/12/03 20:57:39;;;;;;;0.20;0.07;;;8.80;99.90;;;;;;20818408;28;20310;-77
2021/12/03 21:08:10;;;;;;;0.20;0.10;;;8.70;99.90;;;;;;20783053;28;20202;-78
2021/12/03 21:18:26;;;;;;;0.20;0.10;;;8.70;99.90;;;;;;20815319;28;20229;-78
2021/12/03 21:28:41;;;;;;;0.20;0.10;;;8.70;99.90;;;;;;20814451;28;20623;-77
2021/12/03 21:48:57;;;;;;;0.20;0.10;;;8.60;99.90;;;;;;20817333;28;20279;-79
2021/12/03 21:59:03;;;;;;;0.20;0.10;;;8.50;99.90;;;;;;20817663;28;20295;-79
2021/12/03 22:09:09;;;;;;;0.20;0.03;;;8.60;99.90;;;;;;20822712;28;20320;-77
2021/12/03 22:19:15;;;;;;;0.20;0.10;;;8.60;99.90;;;;;;20854920;28;20801;-77
2021/12/03 22:29:19;;;;;;;0.20;0.00;;;8.60;99.90;;;;;;20835546;28;20265;-78
2021/12/03 22:39:24;;;;;;;0.20;0.17;;;8.90;99.90;;;;;;20833591;28;20264;-79
2021/12/03 22:49:35;;;;;;;0.20;0.10;;;8.80;99.90;;;;;;20827696;28;20217;-82
2021/12/03 22:59:42;;;;;;;0.20;0.10;;;8.80;99.90;;;;;;20831481;28;20240;-80
2021/12/03 23:09:46;;;;;;;0.20;0.10;;;8.80;99.90;;;;;;20823978;28;20230;-80
2021/12/03 23:19:51;;;;;;;0.20;0.10;;;9.20;99.90;;;;;;20746191;28;20190;-79
2021/12/03 23:29:55;;;;;;;0.20;0.00;;;9.20;99.90;;;;;;20777836;28;20230;-71
2021/12/03 23:40:00;;;;;;;0.20;0.10;;;8.50;99.90;;;;;;20821600;28;20191;-80
2021/12/03 23:50:05;;;;;;;0.20;0.10;;;9.20;99.90;;;;;;20814644;28;20310;-78
